Moorefield, Ohio
Current Conditions -  °F | °C
As of 2:53 PM on Saturday 25 Oct 2014 (Local Time) from KHLG Reporting Station
Overcast Overcast  
Wind Chill: 64°   Ceiling: 4200
Heat Index: 64°   Visibility: 10mi
Dew Point: 48°   Wind: 17mph
Humidity: 56%   Direction: 220°SW
Pressure: 29.83"   Gusts: 26mph
Location:  40.2595°N, 81.0198°W
Report Text: KHLG 251853Z 22015G23KT 10SM BKN042 OVC050 18/09 A2983 RMK AO2 PK WND 20027/1823 SLP102 T01780089
Loading
Personal Weather Stations






























Interactive Weather Map
Tropical Storm Tracking
New forecast layout! Learn more

10-Day Weather Forecast

Advertisements
Track Severe Weather on mobile